sensor_id;sensor_type;location;lat;lon;timestamp;P1;durP1;ratioP1;P2;durP2;ratioP2
17741;SDS011;8993;51.822;-2.268;2024-02-23T00:00:24;10.88;;;1.45;;
17741;SDS011;8993;51.822;-2.268;2024-02-23T00:05:27;11.10;;;1.41;;
17741;SDS011;8993;51.822;-2.268;2024-02-23T00:10:30;8.07;;;1.09;;
17741;SDS011;8993;51.822;-2.268;2024-02-23T00:15:34;11.42;;;1.41;;
17741;SDS011;8993;51.822;-2.268;2024-02-23T00:20:38;8.83;;;1.31;;
17741;SDS011;8993;51.822;-2.268;2024-02-23T00:25:41;10.26;;;1.34;;
17741;SDS011;8993;51.822;-2.268;2024-02-23T00:30:45;10.37;;;1.35;;
17741;SDS011;8993;51.822;-2.268;2024-02-23T00:35:48;10.34;;;1.32;;
17741;SDS011;8993;51.822;-2.268;2024-02-23T00:40:52;11.50;;;1.51;;
17741;SDS011;8993;51.822;-2.268;2024-02-23T00:45:56;11.31;;;1.73;;
17741;SDS011;8993;51.822;-2.268;2024-02-23T00:51:00;13.52;;;1.63;;
17741;SDS011;8993;51.822;-2.268;2024-02-23T00:56:03;11.45;;;1.75;;
17741;SDS011;8993;51.822;-2.268;2024-02-23T01:01:06;11.04;;;1.69;;
17741;SDS011;8993;51.822;-2.268;2024-02-23T01:06:10;12.77;;;1.96;;
17741;SDS011;8993;51.822;-2.268;2024-02-23T01:11:13;10.60;;;1.42;;
17741;SDS011;8993;51.822;-2.268;2024-02-23T01:16:17;9.49;;;1.27;;
17741;SDS011;8993;51.822;-2.268;2024-02-23T01:21:21;10.32;;;1.50;;
17741;SDS011;8993;51.822;-2.268;2024-02-23T01:26:24;9.10;;;1.15;;
17741;SDS011;8993;51.822;-2.268;2024-02-23T01:31:29;8.20;;;1.11;;
17741;SDS011;8993;51.822;-2.268;2024-02-23T01:36:32;7.53;;;1.21;;
17741;SDS011;8993;51.822;-2.268;2024-02-23T01:41:35;7.80;;;0.99;;
17741;SDS011;8993;51.822;-2.268;2024-02-23T01:46:40;8.95;;;1.76;;
17741;SDS011;8993;51.822;-2.268;2024-02-23T01:51:46;9.77;;;1.33;;
17741;SDS011;8993;51.822;-2.268;2024-02-23T01:56:50;9.85;;;1.56;;
17741;SDS011;8993;51.822;-2.268;2024-02-23T02:01:53;10.02;;;1.43;;
17741;SDS011;8993;51.822;-2.268;2024-02-23T02:06:58;8.44;;;1.13;;
17741;SDS011;8993;51.822;-2.268;2024-02-23T02:12:02;6.35;;;0.97;;
17741;SDS011;8993;51.822;-2.268;2024-02-23T02:17:06;6.66;;;1.09;;
17741;SDS011;8993;51.822;-2.268;2024-02-23T02:22:09;7.56;;;1.29;;
17741;SDS011;8993;51.822;-2.268;2024-02-23T02:27:13;9.21;;;1.50;;
17741;SDS011;8993;51.822;-2.268;2024-02-23T02:32:17;8.71;;;1.70;;
17741;SDS011;8993;51.822;-2.268;2024-02-23T02:37:20;11.95;;;1.84;;
17741;SDS011;8993;51.822;-2.268;2024-02-23T02:42:24;9.29;;;1.55;;
17741;SDS011;8993;51.822;-2.268;2024-02-23T02:47:27;5.74;;;0.92;;
17741;SDS011;8993;51.822;-2.268;2024-02-23T02:52:31;7.89;;;1.45;;
17741;SDS011;8993;51.822;-2.268;2024-02-23T02:57:35;7.38;;;1.65;;
17741;SDS011;8993;51.822;-2.268;2024-02-23T03:02:40;8.50;;;1.75;;
17741;SDS011;8993;51.822;-2.268;2024-02-23T03:07:43;8.54;;;1.65;;
17741;SDS011;8993;51.822;-2.268;2024-02-23T03:12:47;7.57;;;1.42;;
17741;SDS011;8993;51.822;-2.268;2024-02-23T03:17:50;8.29;;;1.63;;
17741;SDS011;8993;51.822;-2.268;2024-02-23T03:22:54;7.28;;;1.22;;
17741;SDS011;8993;51.822;-2.268;2024-02-23T03:27:58;6.40;;;1.08;;
17741;SDS011;8993;51.822;-2.268;2024-02-23T03:33:02;6.90;;;1.03;;
17741;SDS011;8993;51.822;-2.268;2024-02-23T03:38:05;5.91;;;1.04;;
17741;SDS011;8993;51.822;-2.268;2024-02-23T03:43:08;6.40;;;1.09;;
17741;SDS011;8993;51.822;-2.268;2024-02-23T03:48:12;7.45;;;0.96;;
17741;SDS011;8993;51.822;-2.268;2024-02-23T03:53:16;5.99;;;0.89;;
17741;SDS011;8993;51.822;-2.268;2024-02-23T03:58:19;4.80;;;0.84;;
17741;SDS011;8993;51.822;-2.268;2024-02-23T04:03:23;6.09;;;0.89;;
17741;SDS011;8993;51.822;-2.268;2024-02-23T04:08:26;6.70;;;1.04;;
17741;SDS011;8993;51.822;-2.268;2024-02-23T04:13:30;9.75;;;1.44;;
17741;SDS011;8993;51.822;-2.268;2024-02-23T04:18:33;8.22;;;1.36;;
17741;SDS011;8993;51.822;-2.268;2024-02-23T04:23:37;8.73;;;1.48;;
17741;SDS011;8993;51.822;-2.268;2024-02-23T04:28:41;9.75;;;1.68;;
17741;SDS011;8993;51.822;-2.268;2024-02-23T04:33:45;10.73;;;2.06;;
17741;SDS011;8993;51.822;-2.268;2024-02-23T04:38:48;7.78;;;1.86;;
17741;SDS011;8993;51.822;-2.268;2024-02-23T04:43:51;8.24;;;1.77;;
17741;SDS011;8993;51.822;-2.268;2024-02-23T04:48:55;10.33;;;2.05;;
17741;SDS011;8993;51.822;-2.268;2024-02-23T04:53:59;12.36;;;2.44;;
17741;SDS011;8993;51.822;-2.268;2024-02-23T04:59:02;13.36;;;2.60;;
17741;SDS011;8993;51.822;-2.268;2024-02-23T05:04:06;11.62;;;2.78;;
17741;SDS011;8993;51.822;-2.268;2024-02-23T05:09:09;12.69;;;3.08;;
17741;SDS011;8993;51.822;-2.268;2024-02-23T05:19:17;14.44;;;3.88;;
17741;SDS011;8993;51.822;-2.268;2024-02-23T05:24:20;14.67;;;3.33;;
17741;SDS011;8993;51.822;-2.268;2024-02-23T05:29:24;16.23;;;3.81;;
17741;SDS011;8993;51.822;-2.268;2024-02-23T05:34:27;14.71;;;3.75;;
17741;SDS011;8993;51.822;-2.268;2024-02-23T05:39:31;13.28;;;3.56;;
17741;SDS011;8993;51.822;-2.268;2024-02-23T05:44:34;13.21;;;2.76;;
17741;SDS011;8993;51.822;-2.268;2024-02-23T05:49:38;12.64;;;2.76;;
17741;SDS011;8993;51.822;-2.268;2024-02-23T05:54:42;14.95;;;2.94;;
17741;SDS011;8993;51.822;-2.268;2024-02-23T05:59:45;15.62;;;3.58;;
17741;SDS011;8993;51.822;-2.268;2024-02-23T06:04:49;17.91;;;4.09;;
17741;SDS011;8993;51.822;-2.268;2024-02-23T06:09:52;16.18;;;3.95;;
17741;SDS011;8993;51.822;-2.268;2024-02-23T06:14:56;14.91;;;3.40;;
17741;SDS011;8993;51.822;-2.268;2024-02-23T06:20:00;12.96;;;3.17;;
17741;SDS011;8993;51.822;-2.268;2024-02-23T06:25:04;15.86;;;3.31;;
17741;SDS011;8993;51.822;-2.268;2024-02-23T06:30:08;14.58;;;3.10;;
17741;SDS011;8993;51.822;-2.268;2024-02-23T06:35:10;15.81;;;3.37;;
17741;SDS011;8993;51.822;-2.268;2024-02-23T06:40:14;14.56;;;3.16;;
17741;SDS011;8993;51.822;-2.268;2024-02-23T06:45:18;14.18;;;2.79;;
17741;SDS011;8993;51.822;-2.268;2024-02-23T06:50:21;15.68;;;2.49;;
17741;SDS011;8993;51.822;-2.268;2024-02-23T06:55:25;13.74;;;2.29;;
17741;SDS011;8993;51.822;-2.268;2024-02-23T07:00:28;13.89;;;2.20;;
17741;SDS011;8993;51.822;-2.268;2024-02-23T07:05:32;13.67;;;2.28;;
17741;SDS011;8993;51.822;-2.268;2024-02-23T07:10:36;15.88;;;2.41;;
17741;SDS011;8993;51.822;-2.268;2024-02-23T07:15:39;13.49;;;2.21;;
17741;SDS011;8993;51.822;-2.268;2024-02-23T07:20:43;13.68;;;2.00;;
17741;SDS011;8993;51.822;-2.268;2024-02-23T07:25:46;16.78;;;2.19;;
17741;SDS011;8993;51.822;-2.268;2024-02-23T07:30:50;13.99;;;2.01;;
17741;SDS011;8993;51.822;-2.268;2024-02-23T07:35:53;16.60;;;2.32;;
17741;SDS011;8993;51.822;-2.268;2024-02-23T07:40:57;13.66;;;2.08;;
17741;SDS011;8993;51.822;-2.268;2024-02-23T07:46:01;12.16;;;1.77;;
17741;SDS011;8993;51.822;-2.268;2024-02-23T07:51:04;13.36;;;2.03;;
17741;SDS011;8993;51.822;-2.268;2024-02-23T07:56:08;14.04;;;2.47;;
17741;SDS011;8993;51.822;-2.268;2024-02-23T08:01:11;13.73;;;2.12;;
17741;SDS011;8993;51.822;-2.268;2024-02-23T08:06:15;15.00;;;2.49;;
17741;SDS011;8993;51.822;-2.268;2024-02-23T08:11:19;16.00;;;2.22;;
17741;SDS011;8993;51.822;-2.268;2024-02-23T08:16:22;19.88;;;2.98;;
17741;SDS011;8993;51.822;-2.268;2024-02-23T08:21:26;18.12;;;3.08;;
17741;SDS011;8993;51.822;-2.268;2024-02-23T08:26:29;24.25;;;4.31;;
17741;SDS011;8993;51.822;-2.268;2024-02-23T08:31:33;24.00;;;4.05;;
17741;SDS011;8993;51.822;-2.268;2024-02-23T08:36:37;20.85;;;3.32;;
17741;SDS011;8993;51.822;-2.268;2024-02-23T08:41:40;18.29;;;3.18;;
17741;SDS011;8993;51.822;-2.268;2024-02-23T08:46:44;18.86;;;3.20;;
17741;SDS011;8993;51.822;-2.268;2024-02-23T08:51:48;19.39;;;3.28;;
17741;SDS011;8993;51.822;-2.268;2024-02-23T08:56:51;20.49;;;3.28;;
17741;SDS011;8993;51.822;-2.268;2024-02-23T09:01:55;17.25;;;2.91;;
17741;SDS011;8993;51.822;-2.268;2024-02-23T09:06:59;18.27;;;3.05;;
17741;SDS011;8993;51.822;-2.268;2024-02-23T09:12:02;17.66;;;2.63;;
17741;SDS011;8993;51.822;-2.268;2024-02-23T09:17:06;18.80;;;2.65;;
17741;SDS011;8993;51.822;-2.268;2024-02-23T09:22:09;20.07;;;3.05;;
17741;SDS011;8993;51.822;-2.268;2024-02-23T09:27:13;17.87;;;2.83;;
17741;SDS011;8993;51.822;-2.268;2024-02-23T09:32:18;17.33;;;2.71;;
17741;SDS011;8993;51.822;-2.268;2024-02-23T09:37:21;18.72;;;3.43;;
17741;SDS011;8993;51.822;-2.268;2024-02-23T09:42:24;19.40;;;2.88;;
17741;SDS011;8993;51.822;-2.268;2024-02-23T09:47:29;18.43;;;2.94;;
17741;SDS011;8993;51.822;-2.268;2024-02-23T09:52:32;19.15;;;3.14;;
17741;SDS011;8993;51.822;-2.268;2024-02-23T09:57:36;17.67;;;3.30;;
17741;SDS011;8993;51.822;-2.268;2024-02-23T10:02:39;17.77;;;2.89;;
17741;SDS011;8993;51.822;-2.268;2024-02-23T10:07:43;17.48;;;3.09;;
17741;SDS011;8993;51.822;-2.268;2024-02-23T10:12:47;17.97;;;3.02;;
17741;SDS011;8993;51.822;-2.268;2024-02-23T10:17:50;17.20;;;2.94;;
17741;SDS011;8993;51.822;-2.268;2024-02-23T10:22:54;17.59;;;3.26;;
17741;SDS011;8993;51.822;-2.268;2024-02-23T10:27:58;16.09;;;2.94;;
17741;SDS011;8993;51.822;-2.268;2024-02-23T10:33:02;21.07;;;2.68;;
17741;SDS011;8993;51.822;-2.268;2024-02-23T10:38:05;16.85;;;2.72;;
17741;SDS011;8993;51.822;-2.268;2024-02-23T10:43:10;19.46;;;2.80;;
17741;SDS011;8993;51.822;-2.268;2024-02-23T10:48:13;20.12;;;3.01;;
17741;SDS011;8993;51.822;-2.268;2024-02-23T10:53:16;19.06;;;2.77;;
17741;SDS011;8993;51.822;-2.268;2024-02-23T10:58:19;16.58;;;2.51;;
17741;SDS011;8993;51.822;-2.268;2024-02-23T11:03:23;12.87;;;1.66;;
17741;SDS011;8993;51.822;-2.268;2024-02-23T11:08:27;9.66;;;1.44;;
17741;SDS011;8993;51.822;-2.268;2024-02-23T11:13:30;9.03;;;1.11;;
17741;SDS011;8993;51.822;-2.268;2024-02-23T11:18:34;11.04;;;1.58;;
17741;SDS011;8993;51.822;-2.268;2024-02-23T11:23:39;9.42;;;1.30;;
17741;SDS011;8993;51.822;-2.268;2024-02-23T11:28:41;8.18;;;1.52;;
17741;SDS011;8993;51.822;-2.268;2024-02-23T11:33:48;7.15;;;1.06;;
17741;SDS011;8993;51.822;-2.268;2024-02-23T11:38:48;8.00;;;1.24;;
17741;SDS011;8993;51.822;-2.268;2024-02-23T11:43:52;10.24;;;1.31;;
17741;SDS011;8993;51.822;-2.268;2024-02-23T11:48:55;7.51;;;1.48;;
17741;SDS011;8993;51.822;-2.268;2024-02-23T11:53:59;7.90;;;1.13;;
17741;SDS011;8993;51.822;-2.268;2024-02-23T11:59:02;6.81;;;1.21;;
17741;SDS011;8993;51.822;-2.268;2024-02-23T12:04:06;7.43;;;0.92;;
17741;SDS011;8993;51.822;-2.268;2024-02-23T12:09:09;6.86;;;1.05;;
17741;SDS011;8993;51.822;-2.268;2024-02-23T12:14:13;6.86;;;1.08;;
17741;SDS011;8993;51.822;-2.268;2024-02-23T12:19:16;8.55;;;1.25;;
17741;SDS011;8993;51.822;-2.268;2024-02-23T12:24:20;8.03;;;1.62;;
17741;SDS011;8993;51.822;-2.268;2024-02-23T12:29:24;8.06;;;1.58;;
17741;SDS011;8993;51.822;-2.268;2024-02-23T12:34:27;8.20;;;1.66;;
17741;SDS011;8993;51.822;-2.268;2024-02-23T12:39:31;6.69;;;1.09;;
17741;SDS011;8993;51.822;-2.268;2024-02-23T12:44:34;9.16;;;1.19;;
17741;SDS011;8993;51.822;-2.268;2024-02-23T12:49:38;7.02;;;1.25;;
17741;SDS011;8993;51.822;-2.268;2024-02-23T12:54:41;9.14;;;1.16;;
17741;SDS011;8993;51.822;-2.268;2024-02-23T12:59:45;7.03;;;1.19;;
17741;SDS011;8993;51.822;-2.268;2024-02-23T13:04:49;5.46;;;0.98;;
17741;SDS011;8993;51.822;-2.268;2024-02-23T13:09:52;7.16;;;1.24;;
17741;SDS011;8993;51.822;-2.268;2024-02-23T13:14:56;7.68;;;1.52;;
17741;SDS011;8993;51.822;-2.268;2024-02-23T13:19:59;7.26;;;1.24;;
17741;SDS011;8993;51.822;-2.268;2024-02-23T13:25:03;5.72;;;1.10;;
17741;SDS011;8993;51.822;-2.268;2024-02-23T13:30:07;7.32;;;1.24;;
17741;SDS011;8993;51.822;-2.268;2024-02-23T13:35:10;8.98;;;1.71;;
17741;SDS011;8993;51.822;-2.268;2024-02-23T13:40:14;10.19;;;2.35;;
17741;SDS011;8993;51.822;-2.268;2024-02-23T13:45:17;10.52;;;2.81;;
17741;SDS011;8993;51.822;-2.268;2024-02-23T13:50:21;9.03;;;2.35;;
17741;SDS011;8993;51.822;-2.268;2024-02-23T13:55:24;7.64;;;1.93;;
17741;SDS011;8993;51.822;-2.268;2024-02-23T14:00:28;8.06;;;1.64;;
17741;SDS011;8993;51.822;-2.268;2024-02-23T14:05:31;5.73;;;1.03;;
17741;SDS011;8993;51.822;-2.268;2024-02-23T14:10:35;5.74;;;0.81;;
17741;SDS011;8993;51.822;-2.268;2024-02-23T14:15:38;5.73;;;0.94;;
17741;SDS011;8993;51.822;-2.268;2024-02-23T14:20:42;4.09;;;0.81;;
17741;SDS011;8993;51.822;-2.268;2024-02-23T14:25:46;3.86;;;0.75;;
17741;SDS011;8993;51.822;-2.268;2024-02-23T14:30:49;3.45;;;0.61;;
17741;SDS011;8993;51.822;-2.268;2024-02-23T14:35:53;2.83;;;0.57;;
17741;SDS011;8993;51.822;-2.268;2024-02-23T14:40:56;3.77;;;0.83;;
17741;SDS011;8993;51.822;-2.268;2024-02-23T14:46:00;3.95;;;0.79;;
17741;SDS011;8993;51.822;-2.268;2024-02-23T14:51:04;3.60;;;0.69;;
17741;SDS011;8993;51.822;-2.268;2024-02-23T14:56:07;2.73;;;0.63;;
17741;SDS011;8993;51.822;-2.268;2024-02-23T15:01:11;3.67;;;0.63;;
17741;SDS011;8993;51.822;-2.268;2024-02-23T15:06:14;2.84;;;0.58;;
17741;SDS011;8993;51.822;-2.268;2024-02-23T15:11:18;5.32;;;1.08;;
17741;SDS011;8993;51.822;-2.268;2024-02-23T15:16:21;5.33;;;1.02;;
17741;SDS011;8993;51.822;-2.268;2024-02-23T15:21:25;3.98;;;0.68;;
17741;SDS011;8993;51.822;-2.268;2024-02-23T15:26:28;5.30;;;0.72;;
17741;SDS011;8993;51.822;-2.268;2024-02-23T15:31:32;4.60;;;0.70;;
17741;SDS011;8993;51.822;-2.268;2024-02-23T15:36:36;3.75;;;0.56;;
17741;SDS011;8993;51.822;-2.268;2024-02-23T15:41:39;3.57;;;0.60;;
17741;SDS011;8993;51.822;-2.268;2024-02-23T15:46:43;3.32;;;0.56;;
17741;SDS011;8993;51.822;-2.268;2024-02-23T15:51:46;3.28;;;0.71;;
17741;SDS011;8993;51.822;-2.268;2024-02-23T15:56:50;4.27;;;0.64;;
17741;SDS011;8993;51.822;-2.268;2024-02-23T16:01:53;5.91;;;0.81;;
17741;SDS011;8993;51.822;-2.268;2024-02-23T16:06:57;4.25;;;0.75;;
17741;SDS011;8993;51.822;-2.268;2024-02-23T16:12:01;6.07;;;1.15;;
17741;SDS011;8993;51.822;-2.268;2024-02-23T16:17:04;5.90;;;1.20;;
17741;SDS011;8993;51.822;-2.268;2024-02-23T16:22:08;6.36;;;1.38;;
17741;SDS011;8993;51.822;-2.268;2024-02-23T16:27:11;7.81;;;1.27;;
17741;SDS011;8993;51.822;-2.268;2024-02-23T16:32:15;5.67;;;1.14;;
17741;SDS011;8993;51.822;-2.268;2024-02-23T16:37:19;6.45;;;1.18;;
17741;SDS011;8993;51.822;-2.268;2024-02-23T16:42:22;5.86;;;1.15;;
17741;SDS011;8993;51.822;-2.268;2024-02-23T16:47:25;5.00;;;0.96;;
17741;SDS011;8993;51.822;-2.268;2024-02-23T16:52:29;5.51;;;1.00;;
17741;SDS011;8993;51.822;-2.268;2024-02-23T16:57:33;5.04;;;0.98;;
17741;SDS011;8993;51.822;-2.268;2024-02-23T17:02:36;5.79;;;1.07;;
17741;SDS011;8993;51.822;-2.268;2024-02-23T17:07:40;5.08;;;1.14;;
17741;SDS011;8993;51.822;-2.268;2024-02-23T17:12:43;7.15;;;1.25;;
17741;SDS011;8993;51.822;-2.268;2024-02-23T17:17:47;5.29;;;1.02;;
17741;SDS011;8993;51.822;-2.268;2024-02-23T17:22:50;5.51;;;1.13;;
17741;SDS011;8993;51.822;-2.268;2024-02-23T17:27:54;6.74;;;1.20;;
17741;SDS011;8993;51.822;-2.268;2024-02-23T17:32:58;5.95;;;1.19;;
17741;SDS011;8993;51.822;-2.268;2024-02-23T17:38:01;7.44;;;1.61;;
17741;SDS011;8993;51.822;-2.268;2024-02-23T17:43:05;8.08;;;1.68;;
17741;SDS011;8993;51.822;-2.268;2024-02-23T17:48:08;6.39;;;1.54;;
17741;SDS011;8993;51.822;-2.268;2024-02-23T17:53:12;6.25;;;1.32;;
17741;SDS011;8993;51.822;-2.268;2024-02-23T17:58:15;6.62;;;1.37;;
17741;SDS011;8993;51.822;-2.268;2024-02-23T18:03:19;7.13;;;1.52;;
17741;SDS011;8993;51.822;-2.268;2024-02-23T18:08:23;6.68;;;1.41;;
17741;SDS011;8993;51.822;-2.268;2024-02-23T18:13:26;7.45;;;1.61;;
17741;SDS011;8993;51.822;-2.268;2024-02-23T18:18:29;8.05;;;1.82;;
17741;SDS011;8993;51.822;-2.268;2024-02-23T18:23:33;9.02;;;1.83;;
17741;SDS011;8993;51.822;-2.268;2024-02-23T18:28:37;10.72;;;2.12;;
17741;SDS011;8993;51.822;-2.268;2024-02-23T18:33:40;9.41;;;1.80;;
17741;SDS011;8993;51.822;-2.268;2024-02-23T18:38:44;8.31;;;1.87;;
17741;SDS011;8993;51.822;-2.268;2024-02-23T18:43:47;8.96;;;1.92;;
17741;SDS011;8993;51.822;-2.268;2024-02-23T18:48:51;9.08;;;2.00;;
17741;SDS011;8993;51.822;-2.268;2024-02-23T18:53:54;10.42;;;2.80;;
17741;SDS011;8993;51.822;-2.268;2024-02-23T18:58:58;13.38;;;2.76;;
17741;SDS011;8993;51.822;-2.268;2024-02-23T19:04:02;9.55;;;2.20;;
17741;SDS011;8993;51.822;-2.268;2024-02-23T19:09:05;12.17;;;2.42;;
17741;SDS011;8993;51.822;-2.268;2024-02-23T19:14:09;10.69;;;2.80;;
17741;SDS011;8993;51.822;-2.268;2024-02-23T19:19:12;12.29;;;2.95;;
17741;SDS011;8993;51.822;-2.268;2024-02-23T19:24:16;12.88;;;2.65;;
17741;SDS011;8993;51.822;-2.268;2024-02-23T19:29:20;12.54;;;2.67;;
17741;SDS011;8993;51.822;-2.268;2024-02-23T19:34:23;14.57;;;2.87;;
17741;SDS011;8993;51.822;-2.268;2024-02-23T19:39:27;13.89;;;2.87;;
17741;SDS011;8993;51.822;-2.268;2024-02-23T19:44:30;11.34;;;2.79;;
17741;SDS011;8993;51.822;-2.268;2024-02-23T19:49:34;12.69;;;2.96;;
17741;SDS011;8993;51.822;-2.268;2024-02-23T19:54:37;11.03;;;2.37;;
17741;SDS011;8993;51.822;-2.268;2024-02-23T19:59:41;12.47;;;2.45;;
17741;SDS011;8993;51.822;-2.268;2024-02-23T20:04:45;10.78;;;2.41;;
17741;SDS011;8993;51.822;-2.268;2024-02-23T20:09:48;11.75;;;2.42;;
17741;SDS011;8993;51.822;-2.268;2024-02-23T20:14:52;14.79;;;2.93;;
17741;SDS011;8993;51.822;-2.268;2024-02-23T20:19:55;10.38;;;2.55;;
17741;SDS011;8993;51.822;-2.268;2024-02-23T20:24:59;15.68;;;3.64;;
17741;SDS011;8993;51.822;-2.268;2024-02-23T20:30:03;16.68;;;3.93;;
17741;SDS011;8993;51.822;-2.268;2024-02-23T20:35:06;15.87;;;3.58;;
17741;SDS011;8993;51.822;-2.268;2024-02-23T20:40:10;14.83;;;3.51;;
17741;SDS011;8993;51.822;-2.268;2024-02-23T20:45:14;14.04;;;3.20;;
17741;SDS011;8993;51.822;-2.268;2024-02-23T20:50:17;14.33;;;3.23;;
17741;SDS011;8993;51.822;-2.268;2024-02-23T20:55:20;13.13;;;3.09;;
17741;SDS011;8993;51.822;-2.268;2024-02-23T21:00:24;17.94;;;3.38;;
17741;SDS011;8993;51.822;-2.268;2024-02-23T21:05:28;14.17;;;2.91;;
17741;SDS011;8993;51.822;-2.268;2024-02-23T21:10:31;13.55;;;3.37;;
17741;SDS011;8993;51.822;-2.268;2024-02-23T21:15:36;13.14;;;3.85;;
17741;SDS011;8993;51.822;-2.268;2024-02-23T21:20:39;12.01;;;3.16;;
17741;SDS011;8993;51.822;-2.268;2024-02-23T21:25:42;12.57;;;3.18;;
17741;SDS011;8993;51.822;-2.268;2024-02-23T21:30:46;13.03;;;3.23;;
17741;SDS011;8993;51.822;-2.268;2024-02-23T21:35:49;13.04;;;3.03;;
17741;SDS011;8993;51.822;-2.268;2024-02-23T21:40:53;11.95;;;3.00;;
17741;SDS011;8993;51.822;-2.268;2024-02-23T21:45:56;10.35;;;2.60;;
17741;SDS011;8993;51.822;-2.268;2024-02-23T21:51:00;10.02;;;2.67;;
17741;SDS011;8993;51.822;-2.268;2024-02-23T21:56:03;10.48;;;2.68;;
17741;SDS011;8993;51.822;-2.268;2024-02-23T22:01:07;10.40;;;2.70;;
17741;SDS011;8993;51.822;-2.268;2024-02-23T22:06:10;11.95;;;3.18;;
17741;SDS011;8993;51.822;-2.268;2024-02-23T22:11:14;16.72;;;4.39;;
17741;SDS011;8993;51.822;-2.268;2024-02-23T22:16:18;14.92;;;4.43;;
17741;SDS011;8993;51.822;-2.268;2024-02-23T22:21:21;17.84;;;4.82;;
17741;SDS011;8993;51.822;-2.268;2024-02-23T22:26:24;16.18;;;4.17;;
17741;SDS011;8993;51.822;-2.268;2024-02-23T22:31:29;11.53;;;3.23;;
17741;SDS011;8993;51.822;-2.268;2024-02-23T22:36:32;12.76;;;3.29;;
17741;SDS011;8993;51.822;-2.268;2024-02-23T22:41:35;12.40;;;3.50;;
17741;SDS011;8993;51.822;-2.268;2024-02-23T22:46:39;11.65;;;3.19;;
17741;SDS011;8993;51.822;-2.268;2024-02-23T22:51:43;13.42;;;3.61;;
17741;SDS011;8993;51.822;-2.268;2024-02-23T22:56:46;14.40;;;4.00;;
17741;SDS011;8993;51.822;-2.268;2024-02-23T23:01:49;16.03;;;3.56;;
17741;SDS011;8993;51.822;-2.268;2024-02-23T23:06:53;13.60;;;4.00;;
17741;SDS011;8993;51.822;-2.268;2024-02-23T23:11:57;15.89;;;4.68;;
17741;SDS011;8993;51.822;-2.268;2024-02-23T23:17:00;16.30;;;5.40;;
17741;SDS011;8993;51.822;-2.268;2024-02-23T23:22:04;13.98;;;4.15;;
17741;SDS011;8993;51.822;-2.268;2024-02-23T23:27:07;16.50;;;4.20;;
17741;SDS011;8993;51.822;-2.268;2024-02-23T23:32:11;12.52;;;3.67;;
17741;SDS011;8993;51.822;-2.268;2024-02-23T23:37:14;14.32;;;4.56;;
17741;SDS011;8993;51.822;-2.268;2024-02-23T23:42:18;15.40;;;4.70;;
17741;SDS011;8993;51.822;-2.268;2024-02-23T23:47:22;25.13;;;7.16;;
17741;SDS011;8993;51.822;-2.268;2024-02-23T23:52:25;28.72;;;8.72;;
17741;SDS011;8993;51.822;-2.268;2024-02-23T23:57:29;32.10;;;10.70;;
